Time;durP1;ratioP1;P1;durP2;ratioP2;P2;SDS_P1;SDS_P2;PMS_P1;PMS_P2;Temp;Humidity;BMP_temperature;BMP_pressure;BME280_temperature;BME280_humidity;BME280_pressure;Samples;Min_cycle;Max_cycle;Signal;HPM_P1;HPM_P2
2022/05/01 00:00:15;;;;;;;5.90;5.23;;;;;;;12.08;60.32;101943.41;2556819;23;20149;-62
2022/05/01 00:01:15;;;;;;;8.70;6.50;;;;;;;11.42;59.99;101844.78;2557102;23;20227;-63
2022/05/01 00:02:16;;;;;;;9.90;6.80;;;;;;;12.01;60.17;101943.47;2557364;23;20380;-63
2022/05/01 00:03:31;;;;;;;10.33;6.47;;;;;;;11.95;59.97;101940.34;2557228;23;20182;-63
2022/05/01 00:04:32;;;;;;;9.93;6.33;;;;;;;11.90;59.87;101959.44;2557417;23;20224;-63
2022/05/01 00:05:33;;;;;;;9.73;6.40;;;;;;;11.85;60.12;101941.25;2556786;23;20420;-63
2022/05/01 00:06:34;;;;;;;8.73;6.40;;;;;;;11.80;59.90;101944.44;2557128;23;20387;-63
2022/05/01 00:07:34;;;;;;;8.47;6.10;;;;;;;11.76;60.23;101946.47;2557353;23;20514;-63
2022/05/01 00:08:38;;;;;;;13.03;6.70;;;;;;;11.70;60.25;101945.31;2556951;23;20727;-63
2022/05/01 00:09:40;;;;;;;14.40;7.00;;;;;;;11.67;60.20;101959.22;2557404;23;20153;-62
2022/05/01 00:10:40;;;;;;;20.00;7.57;;;;;;;11.61;60.50;101949.72;2556662;23;20475;-63
2022/05/01 00:11:42;;;;;;;20.30;8.00;;;;;;;11.57;60.30;101955.28;2557341;23;20385;-63
2022/05/01 00:12:42;;;;;;;23.13;7.30;;;;;;;11.07;60.46;101878.31;2557445;23;20165;-63
2022/05/01 00:13:45;;;;;;;16.77;6.87;;;;;;;11.46;60.73;101956.53;2557215;23;20863;-63
2022/05/01 00:14:45;;;;;;;12.07;6.57;;;;;;;11.42;60.75;101951.03;2557087;23;20236;-63
2022/05/01 00:15:46;;;;;;;9.73;5.50;;;;;;;11.40;60.69;101944.28;2556922;23;20388;-64
2022/05/01 00:16:48;;;;;;;8.83;5.73;;;;;;;11.14;60.83;101942.88;2556175;23;20498;-63
2022/05/01 00:17:48;;;;;;;8.97;5.27;;;;;;;11.31;60.97;101953.06;2556531;23;20518;-63
2022/05/01 00:18:49;;;;;;;7.03;5.53;;;;;;;11.28;61.03;101947.56;2557143;23;20463;-63
2022/05/01 00:19:50;;;;;;;8.10;5.70;;;;;;;10.87;61.18;101902.19;2557343;23;20639;-63
2022/05/01 00:20:50;;;;;;;9.73;5.80;;;;;;;11.12;61.24;101938.91;2556884;23;20670;-63
2022/05/01 00:21:51;;;;;;;6.90;5.47;;;;;;;11.18;61.50;101957.50;2557171;23;20168;-63
2022/05/01 00:22:51;;;;;;;8.83;5.80;;;;;;;11.10;61.46;101963.50;2557096;23;20651;-63
2022/05/01 00:23:52;;;;;;;7.70;5.87;;;;;;;11.05;61.58;101956.38;2557087;23;20600;-63
2022/05/01 00:24:52;;;;;;;8.57;5.70;;;;;;;11.01;61.94;101963.16;2557125;23;20616;-63
2022/05/01 00:25:53;;;;;;;10.93;6.03;;;;;;;10.98;62.13;101959.22;2557076;23;20200;-63
2022/05/01 00:26:54;;;;;;;8.33;5.37;;;;;;;10.34;62.32;101860.00;2557381;23;20184;-63
2022/05/01 00:27:55;;;;;;;14.97;6.33;;;;;;;10.19;62.52;101862.06;2557032;23;20163;-63
2022/05/01 00:28:56;;;;;;;15.40;6.33;;;;;;;10.94;62.64;101952.06;2557033;23;20181;-63
2022/05/01 00:29:56;;;;;;;13.60;5.93;;;;;;;10.94;62.75;101954.84;2556704;23;20379;-63
2022/05/01 00:30:57;;;;;;;9.80;6.77;;;;;;;10.91;62.86;101956.44;2557305;23;20206;-63
2022/05/01 00:31:57;;;;;;;12.37;6.30;;;;;;;10.89;63.02;101953.28;2557313;23;20219;-63
2022/05/01 00:36:55;;;;;;;8.33;5.37;;;;;;;10.87;63.40;101960.44;2557096;23;20353;-63
2022/05/01 00:37:55;;;;;;;8.70;5.40;;;;;;;10.84;62.90;101962.03;2557335;23;20376;-63
2022/05/01 00:39:03;;;;;;;6.80;5.50;;;;;;;10.82;62.86;101960.84;2557592;23;20239;-63
2022/05/01 00:40:04;;;;;;;6.27;5.20;;;;;;;10.79;63.01;101962.44;2557456;23;20155;-63
2022/05/01 00:41:11;;;;;;;7.10;5.07;;;;;;;10.54;63.22;101922.13;2557198;23;20409;-63
2022/05/01 00:42:11;;;;;;;7.20;5.20;;;;;;;10.72;63.03;101959.66;2557261;23;20361;-63
2022/05/01 00:43:12;;;;;;;7.87;5.07;;;;;;;10.69;63.20;101962.47;2557930;23;20376;-62
2022/05/01 00:44:14;;;;;;;8.73;5.77;;;;;;;10.61;63.44;101960.91;2557859;23;20149;-63
2022/05/01 00:45:15;;;;;;;8.13;5.57;;;;;;;10.60;63.87;101953.81;2557715;23;20154;-63
2022/05/01 00:46:15;;;;;;;10.40;6.33;;;;;;;10.04;64.26;101879.13;2557599;23;20537;-63
2022/05/01 00:47:16;;;;;;;8.83;5.53;;;;;;;10.63;63.80;101962.09;2558051;23;20181;-62
2022/05/01 00:48:16;;;;;;;8.93;6.00;;;;;;;10.63;63.63;101955.75;2557894;23;20169;-63
2022/05/01 00:49:23;;;;;;;8.53;5.27;;;;;;;10.63;63.48;101958.53;2557729;23;20151;-63
2022/05/01 00:50:24;;;;;;;7.37;5.13;;;;;;;9.67;63.29;101807.53;2557396;23;20160;-63
2022/05/01 00:51:25;;;;;;;9.10;5.80;;;;;;;10.60;63.43;101962.88;2558020;23;20383;-63
2022/05/01 00:52:26;;;;;;;8.37;5.90;;;;;;;10.57;63.38;101965.69;2557886;23;20881;-63
2022/05/01 00:53:27;;;;;;;9.33;5.73;;;;;;;10.57;63.74;101962.91;2557786;23;20163;-63
2022/05/01 00:54:32;;;;;;;8.67;5.67;;;;;;;9.73;63.97;101835.63;2557930;23;20524;-63
2022/05/01 00:55:33;;;;;;;10.73;6.30;;;;;;;10.56;63.91;101967.66;2556710;23;20160;-62
2022/05/01 00:56:38;;;;;;;8.47;6.10;;;;;;;10.42;64.05;101953.84;2557023;23;20377;-63
2022/05/01 00:57:39;;;;;;;7.40;5.63;;;;;;;9.98;64.17;101870.38;2569626;23;20387;-63
2022/05/01 00:58:40;;;;;;;6.63;5.30;;;;;;;10.56;63.84;101966.88;2568997;23;20379;-63
2022/05/01 00:59:43;;;;;;;7.00;5.23;;;;;;;10.54;63.56;101966.47;2558066;23;20383;-63
2022/05/01 01:00:43;;;;;;;6.93;5.47;;;;;;;10.53;63.62;101970.44;2557149;23;20395;-63
2022/05/01 01:01:47;;;;;;;7.77;5.23;;;;;;;10.53;63.96;101973.19;2557864;23;20372;-63
2022/05/01 01:02:47;;;;;;;7.07;5.30;;;;;;;10.51;63.83;101965.28;2558068;23;20153;-63
2022/05/01 01:03:48;;;;;;;8.17;5.83;;;;;;;10.48;64.16;101965.28;2557675;23;20373;-63
2022/05/01 01:04:49;;;;;;;8.93;5.47;;;;;;;9.90;64.08;101884.63;2557711;23;20215;-63
2022/05/01 01:05:49;;;;;;;6.63;5.40;;;;;;;10.44;64.41;101962.53;2557471;23;20163;-63
2022/05/01 01:06:50;;;;;;;7.13;5.87;;;;;;;10.44;64.43;101961.72;2557640;23;22009;-63
2022/05/01 01:07:51;;;;;;;8.77;5.73;;;;;;;10.36;64.19;101949.09;2557217;23;20164;-63
2022/05/01 01:08:52;;;;;;;8.73;5.80;;;;;;;10.41;64.79;101955.00;2556740;23;20595;-63
2022/05/01 01:09:53;;;;;;;7.70;5.50;;;;;;;10.41;64.49;101951.47;2557591;23;20618;-63
2022/05/01 01:10:53;;;;;;;7.33;5.10;;;;;;;10.42;64.67;101953.03;2557767;23;20750;-63
2022/05/01 01:13:13;;;;;;;6.57;5.20;;;;;;;10.42;64.40;101959.38;2558047;23;20575;-63
2022/05/01 01:14:15;;;;;;;6.57;5.00;;;;;;;9.87;63.73;101877.09;2557787;23;20849;-63
2022/05/01 01:15:16;;;;;;;7.13;5.37;;;;;;;10.40;63.71;101956.19;2557563;23;20179;-63
2022/05/01 01:16:16;;;;;;;5.97;5.07;;;;;;;10.28;63.74;101937.22;2557726;23;20379;-63
2022/05/01 01:17:17;;;;;;;10.10;6.77;;;;;;;9.48;63.83;101821.00;2557936;23;20221;-63
2022/05/01 01:18:17;;;;;;;8.23;5.87;;;;;;;10.30;63.99;101948.69;2557079;23;20192;-63
2022/05/01 01:19:18;;;;;;;10.13;6.00;;;;;;;10.31;63.65;101955.03;2557077;23;20206;-63
2022/05/01 01:20:19;;;;;;;7.13;6.03;;;;;;;9.34;63.89;101816.28;2557157;23;20261;-63
2022/05/01 01:21:20;;;;;;;6.90;5.47;;;;;;;10.29;63.90;101951.84;2558127;23;20155;-63
2022/05/01 01:22:20;;;;;;;9.10;5.87;;;;;;;10.27;63.52;101952.28;2557490;23;20466;-63
2022/05/01 01:23:22;;;;;;;7.90;6.30;;;;;;;10.24;63.41;101950.28;2557765;23;20148;-63
2022/05/01 01:24:22;;;;;;;7.83;6.27;;;;;;;10.21;63.43;101948.34;2557820;23;20160;-63
2022/05/01 01:25:31;;;;;;;8.63;6.67;;;;;;;10.20;63.92;101949.50;2556678;23;20395;-63
2022/05/01 01:26:34;;;;;;;8.43;6.70;;;;;;;10.13;63.97;101935.69;2558324;23;20594;-63
2022/05/01 01:27:35;;;;;;;9.13;7.20;;;;;;;9.97;63.97;101921.41;2569016;23;20493;-63
2022/05/01 01:28:38;;;;;;;12.47;7.03;;;;;;;10.12;64.79;101945.19;2557667;23;20411;-63
2022/05/01 01:32:20;;;;;;;9.17;6.63;;;;;;;10.11;64.84;101940.03;2557770;23;20360;-63
2022/05/01 01:33:21;;;;;;;8.70;6.50;;;;;;;10.11;64.70;101948.34;2557702;23;20466;-63
2022/05/01 01:34:30;;;;;;;6.97;6.13;;;;;;;9.97;64.52;101926.97;2557616;23;20553;-63
2022/05/01 01:35:34;;;;;;;8.00;5.97;;;;;;;9.67;64.11;101878.69;2557463;23;20361;-63
2022/05/01 01:36:37;;;;;;;10.47;6.47;;;;;;;9.10;64.33;101792.16;2557311;23;20391;-63
2022/05/01 01:37:40;;;;;;;9.60;6.50;;;;;;;10.06;64.17;101940.44;2557826;23;20379;-63
2022/05/01 01:38:40;;;;;;;7.10;5.80;;;;;;;9.97;64.25;101935.25;2557523;23;20731;-63
2022/05/01 01:39:43;;;;;;;10.47;6.40;;;;;;;10.02;64.40;101943.19;2557838;23;20408;-63
2022/05/01 01:40:51;;;;;;;11.53;6.70;;;;;;;10.00;64.13;101942.75;2557203;23;20156;-62
2022/05/01 01:41:54;;;;;;;7.18;6.05;;;;;;;9.32;64.35;101851.81;2558120;23;20395;-62
2022/05/01 01:42:57;;;;;;;7.95;6.07;;;;;;;9.98;64.52;101936.84;2557825;23;20173;-63
2022/05/01 01:43:59;;;;;;;7.40;5.63;;;;;;;9.96;64.39;101932.88;2557616;23;20157;-63
2022/05/01 01:45:01;;;;;;;8.25;6.00;;;;;;;9.70;64.97;101897.31;2557617;23;20413;-63
2022/05/01 01:46:01;;;;;;;8.15;6.03;;;;;;;9.90;64.80;101940.78;2557529;23;20146;-63
2022/05/01 01:47:02;;;;;;;7.90;6.00;;;;;;;9.85;65.12;101929.34;2557714;23;20539;-63
2022/05/01 01:48:14;;;;;;;7.97;5.80;;;;;;;9.85;65.05;101926.56;2557668;23;20146;-63
2022/05/01 01:49:16;;;;;;;7.07;5.68;;;;;;;9.87;65.05;101935.25;2557621;23;20502;-63
2022/05/01 01:50:19;;;;;;;9.00;5.53;;;;;;;9.86;64.89;101925.38;2556741;23;20159;-63
2022/05/01 01:51:20;;;;;;;9.30;5.87;;;;;;;9.86;64.75;101928.94;2557949;23;20239;-63
2022/05/01 01:52:21;;;;;;;7.83;5.67;;;;;;;9.86;64.54;101933.69;2557654;23;20386;-63
2022/05/01 01:53:22;;;;;;;9.47;5.93;;;;;;;9.78;64.81;101921.03;2557527;23;20160;-63
2022/05/01 01:54:24;;;;;;;8.53;5.80;;;;;;;9.85;64.69;101932.88;2557807;23;20186;-62
2022/05/01 01:55:25;;;;;;;7.20;5.90;;;;;;;9.80;64.48;101946.34;2557278;23;20152;-63
2022/05/01 01:56:26;;;;;;;6.97;5.23;;;;;;;9.84;64.83;101925.00;2557492;23;20407;-63
2022/05/01 01:57:26;;;;;;;6.13;5.10;;;;;;;9.84;64.17;101927.75;2557703;23;20475;-63
2022/05/01 01:58:28;;;;;;;6.37;5.37;;;;;;;9.01;64.50;101799.22;2557606;23;20172;-63
2022/05/01 01:59:28;;;;;;;8.70;5.60;;;;;;;9.81;64.52;101925.78;2557526;23;20282;-62
2022/05/01 02:00:29;;;;;;;6.80;5.10;;;;;;;9.59;64.22;101890.97;2557077;23;20466;-63
2022/05/01 02:01:30;;;;;;;7.67;5.27;;;;;;;9.77;64.72;101922.22;2557729;23;20167;-63
2022/05/01 02:02:30;;;;;;;6.40;5.30;;;;;;;9.75;64.60;101932.91;2557727;23;20153;-65
2022/05/01 02:03:31;;;;;;;8.40;5.30;;;;;;;9.72;64.99;101922.59;2557415;23;20152;-63
2022/05/01 02:04:32;;;;;;;6.27;5.10;;;;;;;9.40;64.56;101880.28;2557797;23;20156;-63
2022/05/01 02:05:36;;;;;;;8.13;5.23;;;;;;;9.20;64.93;101854.97;2557069;23;20391;-63
2022/05/01 02:06:37;;;;;;;7.60;5.23;;;;;;;9.73;64.71;101924.97;2557462;23;20183;-63
2022/05/01 02:07:38;;;;;;;7.70;5.00;;;;;;;9.59;64.63;101902.03;2557749;23;20380;-63
2022/05/01 02:08:40;;;;;;;6.03;5.23;;;;;;;9.67;63.91;101920.22;2557284;23;20228;-62
2022/05/01 02:09:41;;;;;;;6.63;5.43;;;;;;;9.67;64.64;101923.00;2557566;23;20511;-62
2022/05/01 02:10:44;;;;;;;13.63;5.67;;;;;;;9.44;64.36;101898.47;2557036;23;20407;-62
2022/05/01 02:11:44;;;;;;;8.17;5.07;;;;;;;9.62;64.34;101920.63;2556616;23;20220;-65
2022/05/01 02:12:45;;;;;;;8.60;5.50;;;;;;;9.35;64.15;101883.44;2556976;23;20457;-65
2022/05/01 02:13:45;;;;;;;7.97;5.33;;;;;;;9.12;64.19;101850.63;2569049;23;20182;-65
2022/05/01 02:14:46;;;;;;;7.43;4.80;;;;;;;9.17;64.20;101879.88;2569063;23;20587;-65
2022/05/01 02:15:47;;;;;;;6.77;4.67;;;;;;;9.49;64.49;101908.38;2557436;23;20154;-65
2022/05/01 02:16:48;;;;;;;7.47;4.53;;;;;;;9.53;64.21;101920.22;2557182;23;20188;-65
2022/05/01 02:17:49;;;;;;;8.20;5.03;;;;;;;9.51;64.44;101922.59;2557729;23;20663;-65
2022/05/01 02:18:50;;;;;;;5.20;4.68;;;;;;;9.51;64.42;101923.38;2557175;23;20153;-65
2022/05/01 02:19:50;;;;;;;5.73;4.70;;;;;;;9.50;64.31;101921.00;2557692;23;20694;-65
2022/05/01 02:22:10;;;;;;;6.28;4.68;;;;;;;8.62;64.53;101788.09;2557348;23;20137;-65
2022/05/01 02:23:11;;;;;;;7.83;4.83;;;;;;;9.47;64.88;101919.00;2557622;23;20138;-65
2022/05/01 02:24:12;;;;;;;8.20;5.30;;;;;;;8.67;64.94;101798.78;2557413;23;20592;-65
2022/05/01 02:25:13;;;;;;;8.63;5.00;;;;;;;9.29;64.78;101893.31;2557277;23;20146;-65
2022/05/01 02:26:13;;;;;;;6.70;4.57;;;;;;;9.42;64.84;101914.69;2557304;23;20626;-65
2022/05/01 02:27:14;;;;;;;6.37;4.83;;;;;;;9.40;64.91;101907.94;2556776;23;20357;-65
2022/05/01 02:28:15;;;;;;;6.70;5.27;;;;;;;9.37;65.05;101915.06;2556699;23;20149;-65
2022/05/01 02:29:15;;;;;;;8.90;5.20;;;;;;;9.36;65.24;101915.44;2557455;23;20592;-65
2022/05/01 02:30:16;;;;;;;6.30;5.17;;;;;;;9.35;65.40;101905.56;2556971;23;20161;-65
2022/05/01 02:31:17;;;;;;;8.00;5.10;;;;;;;9.36;65.29;101919.03;2557372;23;20145;-65
2022/05/01 02:32:18;;;;;;;8.50;5.17;;;;;;;9.28;65.50;101903.59;2557501;23;20153;-65
2022/05/01 02:33:20;;;;;;;8.63;4.82;;;;;;;8.83;64.92;101828.84;2557298;23;20152;-65
2022/05/01 02:34:22;;;;;;;6.85;4.95;;;;;;;9.34;65.21;101912.28;2557402;23;20160;-65
2022/05/01 02:35:23;;;;;;;7.07;4.32;;;;;;;9.33;65.18;101921.78;2557123;23;20153;-65
2022/05/01 02:36:23;;;;;;;7.87;4.70;;;;;;;9.33;65.12;101919.78;2556388;23;20192;-65
2022/05/01 02:37:24;;;;;;;5.10;4.53;;;;;;;9.34;64.96;101917.84;2556974;23;20228;-65
2022/05/01 02:38:24;;;;;;;6.80;4.87;;;;;;;9.32;65.09;101920.97;2557136;23;20156;-65
2022/05/01 02:39:25;;;;;;;5.83;4.70;;;;;;;9.33;64.98;101916.25;2557279;23;20236;-65
2022/05/01 02:40:26;;;;;;;6.30;4.83;;;;;;;9.23;64.58;101906.72;2556859;23;20161;-65
2022/05/01 02:41:28;;;;;;;6.83;4.40;;;;;;;9.29;64.70;101913.47;2557671;23;20190;-65
2022/05/01 02:42:28;;;;;;;5.15;4.38;;;;;;;8.55;64.92;101795.59;2557616;23;20207;-65
2022/05/01 02:43:29;;;;;;;5.53;4.47;;;;;;;9.29;65.01;101910.72;2557406;23;20163;-65
2022/05/01 02:44:29;;;;;;;6.17;4.60;;;;;;;8.71;65.18;101821.69;2557540;23;20150;-65
2022/05/01 02:45:30;;;;;;;6.67;4.30;;;;;;;9.29;65.32;101918.22;2556935;23;20621;-65
2022/05/01 02:46:32;;;;;;;6.00;4.50;;;;;;;8.81;65.00;101834.75;2557308;23;20149;-65
2022/05/01 02:47:33;;;;;;;10.63;4.53;;;;;;;9.26;64.84;101916.22;2557453;23;20185;-66
2022/05/01 02:48:34;;;;;;;7.60;4.47;;;;;;;9.24;64.93;101913.88;2557176;23;20150;-65
2022/05/01 02:49:35;;;;;;;6.90;4.23;;;;;;;8.77;64.80;101844.22;2557315;23;20620;-65
2022/05/01 02:50:36;;;;;;;7.10;4.68;;;;;;;9.21;65.04;101914.63;2556067;23;20161;-65
2022/05/01 02:51:36;;;;;;;5.77;4.30;;;;;;;9.13;64.87;101903.97;2556766;23;20207;-65
2022/05/01 02:52:37;;;;;;;8.57;4.70;;;;;;;8.95;65.11;101900.34;2557401;23;20601;-65
2022/05/01 02:53:38;;;;;;;5.47;4.60;;;;;;;9.15;64.95;101918.97;2557116;23;20149;-65
2022/05/01 02:54:38;;;;;;;5.67;4.63;;;;;;;9.13;65.40;101910.25;2557388;23;20229;-65
2022/05/01 02:55:39;;;;;;;6.07;4.97;;;;;;;9.11;65.36;101920.13;2557262;23;20593;-65
2022/05/01 02:56:39;;;;;;;8.00;4.83;;;;;;;9.01;65.51;101902.34;2557289;23;20159;-65
2022/05/01 02:57:41;;;;;;;8.23;5.07;;;;;;;9.08;65.49;101918.94;2557509;23;20153;-65
2022/05/01 02:58:42;;;;;;;6.57;4.57;;;;;;;9.06;65.44;101913.03;2557204;23;20175;-65
2022/05/01 02:59:42;;;;;;;7.20;5.00;;;;;;;9.05;65.67;101913.41;2557472;23;20531;-65
2022/05/01 03:00:43;;;;;;;8.50;5.00;;;;;;;8.99;65.85;101904.72;2556047;23;20166;-65
2022/05/01 03:01:44;;;;;;;5.63;4.40;;;;;;;7.91;65.07;101747.59;2556675;23;20180;-65
2022/05/01 03:02:46;;;;;;;5.47;4.55;;;;;;;8.54;64.54;101849.25;2557457;23;20151;-65
2022/05/01 03:03:46;;;;;;;6.35;4.57;;;;;;;8.87;64.49;101910.59;2557212;23;20154;-65
2022/05/01 03:04:47;;;;;;;9.07;4.90;;;;;;;8.81;64.39;101914.13;2557420;23;20192;-65
2022/05/01 03:05:47;;;;;;;7.43;4.50;;;;;;;8.59;64.69;101888.38;2557183;23;20152;-65
2022/05/01 03:06:48;;;;;;;8.70;5.10;;;;;;;8.59;64.68;101910.47;2557093;23;20175;-65
2022/05/01 03:07:48;;;;;;;14.80;6.27;;;;;;;8.47;64.62;101918.31;2557376;23;20153;-65
2022/05/01 03:08:49;;;;;;;14.23;6.27;;;;;;;8.41;65.10;101920.63;2557117;23;20149;-65
2022/05/01 03:09:49;;;;;;;14.67;5.20;;;;;;;8.49;64.89;101924.22;2557441;23;20159;-65
2022/05/01 03:10:50;;;;;;;11.03;5.00;;;;;;;8.51;65.05;101919.91;2557015;23;20184;-65
2022/05/01 03:11:51;;;;;;;7.60;5.17;;;;;;;8.42;65.40;101904.88;2556344;23;20477;-65
2022/05/01 03:12:51;;;;;;;8.50;4.90;;;;;;;8.57;65.28;101936.91;2556819;23;20164;-65
2022/05/01 03:13:52;;;;;;;9.47;5.37;;;;;;;8.52;65.01;101913.22;2557206;23;20746;-65
2022/05/01 03:14:52;;;;;;;8.30;4.87;;;;;;;8.59;65.44;101926.25;2557244;23;20231;-65
2022/05/01 03:15:53;;;;;;;11.47;5.50;;;;;;;8.60;65.45;101925.06;2557149;23;20596;-65
2022/05/01 03:16:54;;;;;;;8.53;5.13;;;;;;;8.21;65.45;101866.09;2557315;23;20184;-65
2022/05/01 03:22:13;;;;;;;6.53;4.80;;;;;;;8.01;66.37;101839.91;2549384;23;20163;-65
2022/05/01 03:23:14;;;;;;;6.30;5.22;;;;;;;8.10;66.27;101851.41;2557439;23;20145;-65
2022/05/01 03:24:15;;;;;;;8.20;5.57;;;;;;;8.66;66.95;101942.91;2557358;23;20220;-66
2022/05/01 03:25:15;;;;;;;7.70;5.65;;;;;;;8.39;66.89;101905.63;2556977;23;20613;-65
2022/05/01 03:26:19;;;;;;;7.27;5.50;;;;;;;8.62;67.21;101936.56;2557263;23;20606;-65
2022/05/01 03:27:19;;;;;;;7.47;5.22;;;;;;;8.51;67.32;101910.84;2557433;23;20268;-65
2022/05/01 03:28:20;;;;;;;8.53;5.80;;;;;;;8.72;67.32;101944.09;2556460;23;20160;-65
2022/05/01 03:29:20;;;;;;;7.03;5.47;;;;;;;8.72;67.44;101947.63;2556537;23;20172;-65
2022/05/01 03:32:43;;;;;;;9.60;5.82;;;;;;;8.73;67.37;101945.69;2552217;23;20146;-65
2022/05/01 03:33:44;;;;;;;7.03;5.05;;;;;;;8.73;66.88;101954.78;2555547;23;20523;-66
2022/05/01 03:34:45;;;;;;;6.60;4.22;;;;;;;8.17;66.25;101879.84;2557013;23;20144;-66
2022/05/01 03:35:46;;;;;;;9.57;4.80;;;;;;;8.68;65.99;101959.88;2557232;23;20176;-66
2022/05/01 03:36:47;;;;;;;6.57;5.57;;;;;;;8.67;65.72;101966.56;2557225;23;20157;-65
2022/05/01 03:37:48;;;;;;;6.78;4.40;;;;;;;8.28;65.96;101902.81;2556445;23;20156;-65
2022/05/01 03:38:48;;;;;;;6.40;4.43;;;;;;;8.60;65.38;101953.50;2556349;23;20157;-65
2022/05/01 03:39:49;;;;;;;7.30;4.80;;;;;;;8.65;65.85;101963.38;2557477;23;20181;-65
2022/05/01 03:40:49;;;;;;;7.60;4.80;;;;;;;8.62;65.49;101964.19;2556980;23;20642;-65
2022/05/01 03:41:50;;;;;;;9.37;4.70;;;;;;;8.23;65.68;101905.94;2557364;23;20501;-65
2022/05/01 03:42:50;;;;;;;7.43;4.70;;;;;;;8.61;65.28;101966.16;2557471;23;20149;-65
2022/05/01 03:43:51;;;;;;;7.97;5.27;;;;;;;8.59;65.24;101959.41;2557107;23;20625;-65
2022/05/01 03:44:52;;;;;;;9.20;5.30;;;;;;;8.48;64.97;101947.53;2557385;23;20153;-65
2022/05/01 03:45:52;;;;;;;9.43;5.37;;;;;;;8.61;65.21;101965.38;2557071;23;20157;-65
2022/05/01 03:46:53;;;;;;;6.93;5.03;;;;;;;8.61;65.07;101968.13;2557178;23;20600;-65
2022/05/01 03:47:54;;;;;;;7.37;4.73;;;;;;;8.59;65.29;101960.22;2556655;23;20174;-65
2022/05/01 03:48:54;;;;;;;7.70;4.80;;;;;;;8.52;65.04;101953.88;2556377;23;20153;-65
2022/05/01 03:49:55;;;;;;;6.63;4.93;;;;;;;8.56;65.25;101965.72;2557014;23;20177;-65
2022/05/01 03:50:56;;;;;;;7.30;4.63;;;;;;;8.56;64.93;101960.97;2557359;23;20640;-65
2022/05/01 03:51:56;;;;;;;6.23;5.27;;;;;;;8.56;65.47;101963.75;2557292;23;20155;-66
2022/05/01 03:52:57;;;;;;;6.10;5.50;;;;;;;8.57;65.37;101964.56;2557537;23;20155;-65
2022/05/01 03:54:02;;;;;;;7.40;5.13;;;;;;;8.56;65.58;101966.50;2557183;23;20156;-65
2022/05/01 03:55:02;;;;;;;6.93;5.53;;;;;;;8.57;66.03;101962.56;2556445;23;20153;-65
2022/05/01 03:56:03;;;;;;;8.13;5.40;;;;;;;8.57;66.07;101967.31;2556213;23;20145;-65
2022/05/01 03:57:04;;;;;;;8.53;5.83;;;;;;;7.73;66.03;101836.94;2557493;23;20172;-65
2022/05/01 03:58:05;;;;;;;7.10;5.37;;;;;;;8.56;66.42;101969.28;2557499;23;20525;-65
2022/05/01 03:59:05;;;;;;;10.50;5.70;;;;;;;8.59;66.79;101965.75;2557040;23;20145;-65
2022/05/01 04:00:10;;;;;;;7.63;5.33;;;;;;;8.61;66.82;101965.38;2556973;23;20153;-65
2022/05/01 04:01:10;;;;;;;6.55;5.15;;;;;;;8.42;66.88;101929.72;2557617;23;20149;-65
2022/05/01 04:02:11;;;;;;;6.80;5.23;;;;;;;8.61;66.75;101968.13;2557407;23;20155;-66
2022/05/01 04:03:12;;;;;;;6.43;5.83;;;;;;;8.63;67.26;101969.31;2557325;23;20152;-66
2022/05/01 04:04:12;;;;;;;9.23;6.50;;;;;;;8.54;67.08;101949.53;2556362;23;20157;-66
2022/05/01 04:05:14;;;;;;;6.97;5.37;;;;;;;8.67;67.36;101970.13;2556443;23;20150;-66
2022/05/01 04:06:14;;;;;;;7.97;5.82;;;;;;;8.67;67.29;101970.13;2557132;23;20149;-65
2022/05/01 04:07:15;;;;;;;9.40;6.43;;;;;;;8.66;67.68;101962.25;2557419;23;20638;-66
2022/05/01 04:08:16;;;;;;;8.73;6.47;;;;;;;8.55;68.03;101951.13;2557330;23;20149;-65
2022/05/01 04:09:17;;;;;;;7.03;6.32;;;;;;;8.73;67.71;101965.81;2556233;23;20757;-65
2022/05/01 04:10:17;;;;;;;8.13;6.70;;;;;;;8.47;68.11;101907.25;2556186;23;20182;-65
2022/05/01 04:11:19;;;;;;;11.20;6.33;;;;;;;8.74;68.36;101948.06;2557482;23;20652;-65
2022/05/01 04:12:22;;;;;;;9.27;6.93;;;;;;;8.80;68.24;101963.09;2557186;23;20497;-66
2022/05/01 04:13:22;;;;;;;7.32;5.90;;;;;;;8.84;68.72;101965.88;2557594;23;20158;-65
2022/05/01 04:14:23;;;;;;;15.20;6.90;;;;;;;8.02;68.82;101842.28;2558050;23;20203;-65
2022/05/01 04:15:23;;;;;;;12.90;7.00;;;;;;;8.92;68.99;101962.75;2558021;23;20153;-65
2022/05/01 04:16:24;;;;;;;13.63;7.40;;;;;;;8.96;68.71;101955.25;2557781;23;20150;-65
2022/05/01 04:17:24;;;;;;;13.60;7.30;;;;;;;9.09;68.78;101967.56;2558285;23;20149;-66
2022/05/01 04:18:25;;;;;;;11.50;6.87;;;;;;;9.15;68.91;101967.97;2558057;23;20184;-66
2022/05/01 04:19:31;;;;;;;9.03;6.77;;;;;;;9.22;68.83;101971.53;2558006;23;20150;-66
2022/05/01 04:20:32;;;;;;;8.27;6.68;;;;;;;9.28;68.96;101972.75;2557739;23;20135;-65
2022/05/01 04:21:33;;;;;;;9.88;6.45;;;;;;;9.35;69.15;101969.19;2557324;23;20170;-66
2022/05/01 04:22:45;;;;;;;10.10;7.20;;;;;;;9.40;69.23;101971.59;2557335;23;20206;-65
2022/05/01 04:23:46;;;;;;;11.80;7.00;;;;;;;9.45;69.28;101969.25;2558118;23;20149;-66
2022/05/01 04:24:46;;;;;;;11.30;7.30;;;;;;;9.15;69.23;101918.97;2557899;23;20605;-66
2022/05/01 04:25:47;;;;;;;13.10;8.57;;;;;;;9.51;69.33;101953.84;2557892;23;20154;-66
2022/05/01 04:26:48;;;;;;;9.97;7.60;;;;;;;9.42;70.05;101936.00;2558046;23;20174;-65
2022/05/01 04:27:54;;;;;;;12.13;8.03;;;;;;;9.73;70.34;101969.28;2558109;23;20612;-65
2022/05/01 04:30:15;;;;;;;14.80;7.55;;;;;;;9.83;70.50;101968.47;2557627;23;20364;-66
2022/05/01 04:31:16;;;;;;;12.80;7.67;;;;;;;9.93;70.43;101978.78;2558255;23;20148;-66
2022/05/01 04:32:16;;;;;;;14.23;7.57;;;;;;;10.00;70.45;101978.75;2557931;23;20409;-65
2022/05/01 04:33:17;;;;;;;17.27;7.73;;;;;;;10.06;70.37;101974.47;2557764;23;20147;-65
2022/05/01 04:34:17;;;;;;;10.23;7.17;;;;;;;10.14;70.34;101978.81;2558113;23;20228;-66
2022/05/01 04:35:30;;;;;;;12.10;7.10;;;;;;;10.21;69.99;101976.03;2557541;23;20154;-65
2022/05/01 04:36:31;;;;;;;13.90;6.90;;;;;;;10.01;69.82;101944.38;2557804;23;20218;-66
2022/05/01 04:37:31;;;;;;;10.00;6.40;;;;;;;10.35;69.72;101980.78;2558168;23;20154;-66
2022/05/01 04:38:32;;;;;;;10.10;6.50;;;;;;;10.40;69.67;101978.38;2557758;23;20188;-66
2022/05/01 04:39:32;;;;;;;9.87;5.97;;;;;;;10.46;69.13;101982.31;2557780;23;20151;-65
2022/05/01 04:40:40;;;;;;;8.63;6.13;;;;;;;10.50;68.73;101982.34;2557464;23;20157;-66
2022/05/01 04:41:41;;;;;;;7.93;6.00;;;;;;;10.55;68.52;101982.69;2558174;23;20140;-66
2022/05/01 04:42:42;;;;;;;8.43;6.07;;;;;;;10.58;68.49;101987.47;2558212;23;20387;-65
2022/05/01 04:43:42;;;;;;;11.70;6.10;;;;;;;10.63;68.14;101989.81;2557974;23;20163;-65
2022/05/01 04:44:43;;;;;;;7.23;6.17;;;;;;;10.68;67.92;101988.63;2557816;23;20492;-65
2022/05/01 04:45:45;;;;;;;8.77;5.93;;;;;;;10.18;67.48;101904.78;2557810;23;20538;-66
2022/05/01 04:46:49;;;;;;;7.22;6.20;;;;;;;10.75;67.68;101986.59;2557679;23;20160;-65
2022/05/01 04:47:49;;;;;;;9.98;6.47;;;;;;;10.77;67.68;101986.22;2558193;23;20230;-65
2022/05/01 04:48:51;;;;;;;7.65;5.82;;;;;;;10.70;67.34;101967.63;2557784;23;20158;-66
2022/05/01 04:49:51;;;;;;;7.13;6.10;;;;;;;10.85;67.04;101987.75;2558068;23;20160;-65
2022/05/01 04:50:52;;;;;;;7.77;6.37;;;;;;;10.84;66.96;101984.22;2557891;23;20211;-66
2022/05/01 04:51:53;;;;;;;7.60;6.80;;;;;;;10.83;66.96;101984.59;2557955;23;20156;-66
2022/05/01 04:52:54;;;;;;;9.93;6.53;;;;;;;10.83;66.99;101985.41;2558134;23;20391;-65
2022/05/01 04:53:55;;;;;;;7.90;6.53;;;;;;;10.09;67.15;101865.63;2557929;23;20152;-66
2022/05/01 04:54:56;;;;;;;9.23;6.83;;;;;;;10.89;67.17;101983.00;2558136;23;20411;-66
2022/05/01 04:57:04;;;;;;;9.17;6.90;;;;;;;10.94;67.30;101986.16;2557680;23;20150;-65
2022/05/01 04:57:17;;;;;;;10.30;7.63;;;;;;;11.00;67.17;101989.28;2557923;23;20140;-66
2022/05/01 04:58:17;;;;;;;8.77;7.57;;;;;;;11.03;67.17;101991.28;2557979;23;20358;-66
2022/05/01 04:59:18;;;;;;;9.90;7.40;;;;;;;10.85;67.44;101957.25;2558014;23;20161;-63
2022/05/01 05:00:19;;;;;;;9.70;7.70;;;;;;;10.93;67.65;101967.13;2557466;23;20246;-63
2022/05/01 05:01:20;;;;;;;9.17;7.20;;;;;;;11.14;67.67;101992.81;2558026;23;20152;-63
2022/05/01 05:02:20;;;;;;;9.77;7.67;;;;;;;11.19;67.62;101986.84;2557983;23;20377;-63
2022/05/01 05:03:21;;;;;;;8.20;7.40;;;;;;;11.19;67.63;101986.84;2557893;23;20243;-63
2022/05/01 05:04:21;;;;;;;12.00;7.30;;;;;;;11.29;67.66;101993.53;2558093;23;20156;-63